VKG128 EKCH-LGSK
Flight info
| Callsign | VKG128 |
|---|---|
| Flight time | 2h 35m |
| Altitude | 37000 |
| Route | SIMEG Z493 XELOL DCT OLNED DCT LUNUK DCT BABKO DCT DEMOP DCT PARAK DCT PELOV DCT RAXAD DCT MAKED UL617 TSL |
| Aircraft | A321/M-SDE3FGHIRWY/LB1 |
Departure
| Time | 2026-05-05 12:55 |
|---|---|
| Airport | Copenhagen Kastrup Airport (EKCH) |
Arrival
| Time | 2026-05-05 15:31 |
|---|---|
| Airport | Skiathos Island National Airport (LGSK) |
| Time | Latitude | Longitude | Altitude | Speed | Heading |
|---|---|---|---|---|---|
| 2026-05-05 12:04 | 55.62894 | 12.63805 | 45 ft | 0 kts | 12° |
| 2026-05-05 12:40 | 55.62884 | 12.63801 | 17 ft | 3 kts | 12° |
| 2026-05-05 12:40 | 55.62866 | 12.63795 | 17 ft | 3 kts | 19° |
| 2026-05-05 12:40 | 55.62854 | 12.63784 | 17 ft | 3 kts | 74° |
| 2026-05-05 12:41 | 55.62853 | 12.63753 | 20 ft | 3 kts | 102° |
| 2026-05-05 12:41 | 55.62857 | 12.63728 | 17 ft | 3 kts | 101° |
| 2026-05-05 12:41 | 55.62859 | 12.63693 | 17 ft | 3 kts | 88° |
| 2026-05-05 12:41 | 55.62858 | 12.63668 | 17 ft | 1 kts | 86° |
| 2026-05-05 12:42 | 55.62858 | 12.63667 | 17 ft | 0 kts | 86° |
| 2026-05-05 12:45 | 55.62858 | 12.63670 | 17 ft | 1 kts | 85° |
| 2026-05-05 12:45 | 55.62858 | 12.63703 | 18 ft | 4 kts | 93° |
| 2026-05-05 12:45 | 55.62851 | 12.63771 | 21 ft | 7 kts | 102° |
| 2026-05-05 12:45 | 55.62838 | 12.63865 | 17 ft | 8 kts | 104° |
| 2026-05-05 12:46 | 55.62817 | 12.63947 | 19 ft | 7 kts | 133° |
| 2026-05-05 12:46 | 55.62769 | 12.63951 | 17 ft | 7 kts | 204° |
| 2026-05-05 12:46 | 55.62724 | 12.63902 | 17 ft | 8 kts | 213° |
| 2026-05-05 12:46 | 55.62679 | 12.63854 | 18 ft | 7 kts | 197° |
| 2026-05-05 12:47 | 55.62637 | 12.63890 | 17 ft | 7 kts | 131° |
| 2026-05-05 12:47 | 55.62606 | 12.63973 | 17 ft | 9 kts | 123° |
| 2026-05-05 12:47 | 55.62566 | 12.64083 | 18 ft | 12 kts | 122° |
| 2026-05-05 12:47 | 55.62515 | 12.64219 | 17 ft | 14 kts | 123° |
| 2026-05-05 12:48 | 55.62458 | 12.64361 | 17 ft | 11 kts | 127° |
| 2026-05-05 12:48 | 55.62415 | 12.64439 | 17 ft | 7 kts | 154° |
| 2026-05-05 12:48 | 55.62367 | 12.64438 | 17 ft | 7 kts | 192° |
| 2026-05-05 12:48 | 55.62311 | 12.64413 | 19 ft | 11 kts | 194° |
| 2026-05-05 12:49 | 55.62216 | 12.64401 | 15 ft | 14 kts | 172° |
| 2026-05-05 12:49 | 55.62125 | 12.64434 | 17 ft | 12 kts | 169° |
| 2026-05-05 12:49 | 55.62034 | 12.64463 | 18 ft | 17 kts | 170° |
| 2026-05-05 12:49 | 55.61909 | 12.64503 | 17 ft | 18 kts | 169° |
| 2026-05-05 12:50 | 55.61790 | 12.64543 | 17 ft | 17 kts | 169° |
| 2026-05-05 12:50 | 55.61701 | 12.64569 | 17 ft | 11 kts | 179° |
| 2026-05-05 12:50 | 55.61631 | 12.64520 | 18 ft | 11 kts | 212° |
| 2026-05-05 12:50 | 55.61569 | 12.64450 | 17 ft | 10 kts | 213° |
| 2026-05-05 12:51 | 55.61496 | 12.64364 | 17 ft | 16 kts | 214° |
| 2026-05-05 12:51 | 55.61390 | 12.64239 | 19 ft | 20 kts | 213° |
| 2026-05-05 12:51 | 55.61271 | 12.64101 | 17 ft | 21 kts | 213° |
| 2026-05-05 12:51 | 55.61141 | 12.63954 | 17 ft | 23 kts | 213° |
| 2026-05-05 12:52 | 55.61002 | 12.63794 | 17 ft | 25 kts | 213° |
| 2026-05-05 12:52 | 55.60855 | 12.63623 | 17 ft | 26 kts | 213° |
| 2026-05-05 12:52 | 55.60709 | 12.63457 | 17 ft | 25 kts | 213° |
| 2026-05-05 12:52 | 55.60599 | 12.63309 | 18 ft | 16 kts | 220° |
| 2026-05-05 12:53 | 55.60526 | 12.63197 | 17 ft | 11 kts | 221° |
| 2026-05-05 12:53 | 55.60468 | 12.63118 | 17 ft | 10 kts | 204° |
| 2026-05-05 12:53 | 55.60405 | 12.63145 | 17 ft | 11 kts | 137° |
| 2026-05-05 12:53 | 55.60360 | 12.63235 | 18 ft | 9 kts | 132° |
| 2026-05-05 12:54 | 55.60341 | 12.63352 | 19 ft | 4 kts | 51° |
| 2026-05-05 12:54 | 55.60363 | 12.63387 | 19 ft | 8 kts | 42° |
| 2026-05-05 12:54 | 55.60537 | 12.63654 | 17 ft | 67 kts | 40° |
| 2026-05-05 12:55 | 55.61044 | 12.64441 | 16 ft | 124 kts | 41° |
| 2026-05-05 12:55 | 55.61793 | 12.65603 | 32 ft | 163 kts | 40° |
| 2026-05-05 12:55 | 55.62658 | 12.66946 | 564 ft | 163 kts | 39° |
| 2026-05-05 12:55 | 55.63515 | 12.68255 | 1326 ft | 162 kts | 37° |
| 2026-05-05 12:56 | 55.64399 | 12.69611 | 1731 ft | 176 kts | 37° |
| 2026-05-05 12:56 | 55.65356 | 12.71073 | 2102 ft | 187 kts | 38° |
| 2026-05-05 12:56 | 55.66381 | 12.72600 | 2446 ft | 200 kts | 37° |
| 2026-05-05 12:56 | 55.67489 | 12.74239 | 2777 ft | 214 kts | 37° |
| 2026-05-05 12:57 | 55.68675 | 12.75993 | 3187 ft | 229 kts | 37° |
| 2026-05-05 12:57 | 55.69930 | 12.77919 | 3622 ft | 250 kts | 47° |
| 2026-05-05 12:57 | 55.70703 | 12.80740 | 4326 ft | 264 kts | 78° |
| 2026-05-05 12:57 | 55.70535 | 12.84003 | 5125 ft | 274 kts | 111° |
| 2026-05-05 12:58 | 55.69394 | 12.86728 | 5889 ft | 281 kts | 140° |
| 2026-05-05 12:58 | 55.67879 | 12.88945 | 6706 ft | 284 kts | 142° |
| 2026-05-05 12:58 | 55.66328 | 12.91161 | 7500 ft | 288 kts | 143° |
| 2026-05-05 12:58 | 55.64759 | 12.93394 | 8271 ft | 291 kts | 144° |
| 2026-05-05 12:59 | 55.63174 | 12.95656 | 9055 ft | 295 kts | 144° |
| 2026-05-05 12:59 | 55.61566 | 12.97960 | 9814 ft | 299 kts | 145° |
| 2026-05-05 12:59 | 55.59945 | 13.00286 | 10305 ft | 313 kts | 145° |
| 2026-05-05 13:00 | 55.56314 | 13.05489 | 10774 ft | 354 kts | 144° |
| 2026-05-05 13:00 | 55.54388 | 13.08258 | 11399 ft | 360 kts | 144° |
| 2026-05-05 13:01 | 55.48464 | 13.16781 | 13470 ft | 371 kts | 145° |
| 2026-05-05 13:01 | 55.46447 | 13.19668 | 14111 ft | 375 kts | 145° |
| 2026-05-05 13:01 | 55.44437 | 13.22539 | 14734 ft | 379 kts | 146° |
| 2026-05-05 13:01 | 55.42381 | 13.25468 | 15377 ft | 381 kts | 146° |
| 2026-05-05 13:02 | 55.40311 | 13.28411 | 16010 ft | 384 kts | 146° |
| 2026-05-05 13:02 | 55.38222 | 13.31378 | 16639 ft | 387 kts | 146° |
| 2026-05-05 13:02 | 55.36122 | 13.34364 | 17254 ft | 390 kts | 146° |
| 2026-05-05 13:02 | 55.34000 | 13.37379 | 17863 ft | 393 kts | 146° |
| 2026-05-05 13:03 | 55.31865 | 13.40405 | 18423 ft | 396 kts | 146° |
| 2026-05-05 13:03 | 55.29708 | 13.43454 | 18954 ft | 398 kts | 146° |
| 2026-05-05 13:03 | 55.27549 | 13.46504 | 19461 ft | 400 kts | 146° |
| 2026-05-05 13:03 | 55.25388 | 13.49621 | 19970 ft | 405 kts | 142° |
| 2026-05-05 13:04 | 55.23435 | 13.53245 | 20466 ft | 411 kts | 136° |
| 2026-05-05 13:04 | 55.21561 | 13.57048 | 20981 ft | 414 kts | 136° |
| 2026-05-05 13:04 | 55.19674 | 13.60869 | 21493 ft | 416 kts | 136° |
| 2026-05-05 13:04 | 55.17774 | 13.64703 | 21993 ft | 418 kts | 136° |
| 2026-05-05 13:05 | 55.15853 | 13.68558 | 22484 ft | 421 kts | 136° |
| 2026-05-05 13:05 | 55.13944 | 13.72380 | 22954 ft | 423 kts | 136° |
| 2026-05-05 13:05 | 55.11999 | 13.76274 | 23433 ft | 426 kts | 136° |
| 2026-05-05 13:05 | 55.10044 | 13.80189 | 23823 ft | 428 kts | 136° |
| 2026-05-05 13:06 | 55.08077 | 13.84120 | 24213 ft | 431 kts | 136° |
| 2026-05-05 13:06 | 55.06098 | 13.88071 | 24594 ft | 433 kts | 136° |
| 2026-05-05 13:06 | 55.04111 | 13.92032 | 24980 ft | 436 kts | 136° |
| 2026-05-05 13:06 | 55.02104 | 13.96018 | 25356 ft | 438 kts | 136° |
| 2026-05-05 13:07 | 55.00090 | 14.00016 | 25726 ft | 440 kts | 136° |
| 2026-05-05 13:07 | 54.98062 | 14.04029 | 26086 ft | 443 kts | 136° |
| 2026-05-05 13:07 | 54.96012 | 14.08070 | 26453 ft | 445 kts | 136° |
| 2026-05-05 13:07 | 54.93981 | 14.12074 | 26810 ft | 447 kts | 136° |
| 2026-05-05 13:08 | 54.91852 | 14.16019 | 27159 ft | 446 kts | 142° |
| 2026-05-05 13:08 | 54.89414 | 14.19426 | 27513 ft | 443 kts | 150° |
| 2026-05-05 13:08 | 54.86904 | 14.22463 | 27862 ft | 445 kts | 150° |
| 2026-05-05 13:08 | 54.84361 | 14.25537 | 28203 ft | 447 kts | 150° |
| 2026-05-05 13:09 | 54.81801 | 14.28632 | 28526 ft | 449 kts | 150° |
| 2026-05-05 13:09 | 54.79225 | 14.31746 | 28858 ft | 452 kts | 150° |
| 2026-05-05 13:09 | 54.76639 | 14.34858 | 29166 ft | 454 kts | 150° |
| 2026-05-05 13:09 | 54.74018 | 14.37918 | 29488 ft | 455 kts | 152° |
| 2026-05-05 13:10 | 54.71362 | 14.40925 | 29810 ft | 456 kts | 152° |
| 2026-05-05 13:10 | 54.68722 | 14.43866 | 30109 ft | 458 kts | 153° |
| 2026-05-05 13:10 | 54.66037 | 14.46853 | 30398 ft | 459 kts | 152° |
| 2026-05-05 13:10 | 54.63358 | 14.49862 | 30789 ft | 459 kts | 152° |
| 2026-05-05 13:11 | 54.60687 | 14.52882 | 31169 ft | 458 kts | 152° |
| 2026-05-05 13:11 | 54.58028 | 14.55903 | 31545 ft | 457 kts | 152° |
| 2026-05-05 13:11 | 54.55373 | 14.58923 | 31920 ft | 457 kts | 152° |
| 2026-05-05 13:11 | 54.52721 | 14.61934 | 32308 ft | 456 kts | 152° |
| 2026-05-05 13:12 | 54.50067 | 14.64931 | 32682 ft | 455 kts | 152° |
| 2026-05-05 13:12 | 54.47412 | 14.67916 | 33060 ft | 455 kts | 152° |
| 2026-05-05 13:12 | 54.44761 | 14.70884 | 33433 ft | 454 kts | 152° |
| 2026-05-05 13:12 | 54.42114 | 14.73843 | 33817 ft | 453 kts | 152° |
| 2026-05-05 13:13 | 54.39500 | 14.76766 | 34158 ft | 453 kts | 152° |
| 2026-05-05 13:13 | 54.36827 | 14.79750 | 34462 ft | 452 kts | 153° |
| 2026-05-05 13:13 | 54.34216 | 14.82660 | 34738 ft | 453 kts | 153° |
| 2026-05-05 13:13 | 54.31578 | 14.85600 | 35000 ft | 453 kts | 153° |
| 2026-05-05 13:14 | 54.28933 | 14.88543 | 35264 ft | 453 kts | 153° |
| 2026-05-05 13:14 | 54.26292 | 14.91472 | 35515 ft | 453 kts | 153° |
| 2026-05-05 13:14 | 54.23664 | 14.94382 | 35773 ft | 453 kts | 153° |
| 2026-05-05 13:14 | 54.20996 | 14.97332 | 36024 ft | 453 kts | 153° |
| 2026-05-05 13:15 | 54.18351 | 15.00254 | 36260 ft | 453 kts | 153° |
| 2026-05-05 13:15 | 54.15700 | 15.03181 | 36487 ft | 454 kts | 153° |
| 2026-05-05 13:15 | 54.13046 | 15.06113 | 36711 ft | 454 kts | 152° |
| 2026-05-05 13:15 | 54.10386 | 15.09052 | 36884 ft | 455 kts | 152° |
| 2026-05-05 13:16 | 54.05081 | 15.14886 | 36926 ft | 453 kts | 153° |
| 2026-05-05 13:16 | 53.99807 | 15.20642 | 36923 ft | 453 kts | 153° |
| 2026-05-05 13:17 | 53.94504 | 15.26403 | 36925 ft | 452 kts | 153° |
| 2026-05-05 13:17 | 53.89208 | 15.32151 | 36921 ft | 452 kts | 153° |
| 2026-05-05 13:18 | 53.83896 | 15.37910 | 36914 ft | 453 kts | 153° |
| 2026-05-05 13:18 | 53.78584 | 15.43654 | 36912 ft | 453 kts | 153° |
| 2026-05-05 13:19 | 53.73304 | 15.49350 | 36909 ft | 453 kts | 153° |
| 2026-05-05 13:19 | 53.68015 | 15.55035 | 36909 ft | 453 kts | 153° |
| 2026-05-05 13:20 | 53.62687 | 15.60737 | 36909 ft | 453 kts | 153° |
| 2026-05-05 13:20 | 53.57388 | 15.66398 | 36906 ft | 452 kts | 153° |
| 2026-05-05 13:21 | 53.52050 | 15.72071 | 36901 ft | 452 kts | 153° |
| 2026-05-05 13:21 | 53.46771 | 15.77681 | 36902 ft | 452 kts | 153° |
| 2026-05-05 13:22 | 53.41449 | 15.83320 | 36901 ft | 452 kts | 153° |
| 2026-05-05 13:22 | 53.36112 | 15.88945 | 36897 ft | 452 kts | 153° |
| 2026-05-05 13:23 | 53.30814 | 15.94505 | 36899 ft | 452 kts | 153° |
| 2026-05-05 13:23 | 53.25489 | 16.00083 | 36891 ft | 452 kts | 153° |
| 2026-05-05 13:24 | 53.20160 | 16.05649 | 36890 ft | 452 kts | 153° |
| 2026-05-05 13:24 | 53.14815 | 16.11214 | 36889 ft | 452 kts | 153° |
| 2026-05-05 13:25 | 53.09506 | 16.16731 | 36881 ft | 452 kts | 153° |
| 2026-05-05 13:25 | 53.04168 | 16.22271 | 36885 ft | 452 kts | 153° |
| 2026-05-05 13:26 | 52.99691 | 16.26899 | 36878 ft | 452 kts | 153° |
| 2026-05-05 13:26 | 52.94348 | 16.32409 | 36890 ft | 452 kts | 153° |
| 2026-05-05 13:27 | 52.89041 | 16.37856 | 36867 ft | 452 kts | 153° |
| 2026-05-05 13:27 | 52.83688 | 16.43347 | 36882 ft | 452 kts | 153° |
| 2026-05-05 13:28 | 52.78322 | 16.48823 | 36878 ft | 452 kts | 153° |
| 2026-05-05 13:28 | 52.72996 | 16.54247 | 36865 ft | 452 kts | 153° |
| 2026-05-05 13:29 | 52.67636 | 16.59698 | 36869 ft | 452 kts | 153° |
| 2026-05-05 13:29 | 52.62263 | 16.65146 | 36865 ft | 452 kts | 153° |
| 2026-05-05 13:30 | 52.56937 | 16.70523 | 36859 ft | 452 kts | 153° |
| 2026-05-05 13:30 | 52.51559 | 16.75933 | 36863 ft | 452 kts | 153° |
| 2026-05-05 13:31 | 52.46193 | 16.81315 | 36861 ft | 452 kts | 153° |
| 2026-05-05 13:31 | 52.40825 | 16.86691 | 36861 ft | 452 kts | 153° |
| 2026-05-05 13:32 | 52.35455 | 16.92046 | 36862 ft | 452 kts | 153° |
| 2026-05-05 13:32 | 52.30086 | 16.97384 | 36862 ft | 452 kts | 153° |
| 2026-05-05 13:33 | 52.24752 | 17.02679 | 36857 ft | 451 kts | 153° |
| 2026-05-05 13:33 | 52.19381 | 17.07997 | 36849 ft | 451 kts | 153° |
| 2026-05-05 13:34 | 52.14019 | 17.13289 | 36842 ft | 451 kts | 153° |
| 2026-05-05 13:34 | 52.08644 | 17.18572 | 36841 ft | 451 kts | 153° |
| 2026-05-05 13:35 | 52.03274 | 17.23833 | 36841 ft | 451 kts | 153° |
| 2026-05-05 13:35 | 51.97903 | 17.29093 | 36839 ft | 451 kts | 153° |
| 2026-05-05 13:36 | 51.92534 | 17.34332 | 36829 ft | 450 kts | 153° |
| 2026-05-05 13:36 | 51.87193 | 17.39518 | 36828 ft | 450 kts | 153° |
| 2026-05-05 13:37 | 51.81808 | 17.44740 | 36820 ft | 450 kts | 153° |
| 2026-05-05 13:37 | 51.76438 | 17.49940 | 36821 ft | 450 kts | 153° |
| 2026-05-05 13:38 | 51.71065 | 17.55128 | 36814 ft | 449 kts | 153° |
| 2026-05-05 13:38 | 51.65692 | 17.60299 | 36810 ft | 449 kts | 153° |
| 2026-05-05 13:39 | 51.60360 | 17.65424 | 36809 ft | 449 kts | 153° |
| 2026-05-05 13:39 | 51.54990 | 17.70560 | 36806 ft | 449 kts | 153° |
| 2026-05-05 13:40 | 51.49614 | 17.75678 | 36801 ft | 449 kts | 153° |
| 2026-05-05 13:40 | 51.44240 | 17.80782 | 36798 ft | 448 kts | 153° |
| 2026-05-05 13:41 | 51.38863 | 17.85874 | 36795 ft | 448 kts | 153° |
| 2026-05-05 13:41 | 51.33530 | 17.90925 | 36791 ft | 448 kts | 153° |
| 2026-05-05 13:42 | 51.28157 | 17.96004 | 36785 ft | 448 kts | 153° |
| 2026-05-05 13:42 | 51.22787 | 18.01065 | 36794 ft | 448 kts | 153° |
| 2026-05-05 13:43 | 51.17419 | 18.06103 | 36791 ft | 448 kts | 153° |
| 2026-05-05 13:43 | 51.12040 | 18.11128 | 36792 ft | 448 kts | 153° |
| 2026-05-05 13:44 | 51.06691 | 18.16108 | 36792 ft | 448 kts | 153° |
| 2026-05-05 13:44 | 51.01320 | 18.21106 | 36793 ft | 447 kts | 153° |
| 2026-05-05 13:45 | 50.95941 | 18.26097 | 36793 ft | 447 kts | 153° |
| 2026-05-05 13:45 | 50.90566 | 18.31072 | 36789 ft | 447 kts | 153° |
| 2026-05-05 13:46 | 50.85185 | 18.36036 | 36792 ft | 447 kts | 153° |
| 2026-05-05 13:46 | 50.79831 | 18.40963 | 36793 ft | 447 kts | 153° |
| 2026-05-05 13:47 | 50.74442 | 18.45909 | 36794 ft | 447 kts | 153° |
| 2026-05-05 13:47 | 50.69052 | 18.50849 | 36797 ft | 447 kts | 153° |
| 2026-05-05 13:48 | 50.63669 | 18.55778 | 36797 ft | 447 kts | 153° |
| 2026-05-05 13:48 | 50.61151 | 18.58075 | 36800 ft | 447 kts | 153° |
| 2026-05-05 13:49 | 50.55759 | 18.62982 | 36810 ft | 447 kts | 153° |
| 2026-05-05 13:49 | 50.50371 | 18.67861 | 36812 ft | 447 kts | 153° |
| 2026-05-05 13:50 | 50.45009 | 18.72706 | 36820 ft | 446 kts | 153° |
| 2026-05-05 13:50 | 50.39358 | 18.76473 | 36823 ft | 439 kts | 167° |
| 2026-05-05 13:51 | 50.33522 | 18.78996 | 36822 ft | 439 kts | 168° |
| 2026-05-05 13:51 | 50.27618 | 18.81513 | 36817 ft | 439 kts | 168° |
| 2026-05-05 13:52 | 50.21711 | 18.84019 | 36812 ft | 440 kts | 167° |
| 2026-05-05 13:52 | 50.15839 | 18.86522 | 36808 ft | 440 kts | 167° |
| 2026-05-05 13:53 | 50.09934 | 18.89042 | 36808 ft | 440 kts | 167° |
| 2026-05-05 13:53 | 50.04060 | 18.91534 | 36807 ft | 440 kts | 168° |
| 2026-05-05 13:54 | 49.98139 | 18.94032 | 36811 ft | 440 kts | 168° |
| 2026-05-05 13:54 | 49.92232 | 18.96523 | 36811 ft | 440 kts | 168° |
| 2026-05-05 13:55 | 49.86363 | 18.98995 | 36823 ft | 440 kts | 168° |
| 2026-05-05 13:55 | 49.80437 | 19.01479 | 36822 ft | 440 kts | 168° |
| 2026-05-05 13:56 | 49.74529 | 19.03947 | 36824 ft | 440 kts | 168° |
| 2026-05-05 13:56 | 49.68617 | 19.06418 | 36839 ft | 440 kts | 168° |
| 2026-05-05 13:57 | 49.62745 | 19.08871 | 36830 ft | 439 kts | 168° |
| 2026-05-05 13:57 | 49.56837 | 19.11326 | 36843 ft | 440 kts | 168° |
| 2026-05-05 13:58 | 49.50931 | 19.13773 | 36853 ft | 440 kts | 168° |
| 2026-05-05 13:58 | 49.45030 | 19.16218 | 36861 ft | 440 kts | 168° |
| 2026-05-05 13:59 | 49.36195 | 19.19861 | 36850 ft | 439 kts | 168° |
| 2026-05-05 14:00 | 49.28305 | 19.23093 | 36869 ft | 440 kts | 168° |
| 2026-05-05 14:00 | 49.21423 | 19.25914 | 36870 ft | 440 kts | 169° |
| 2026-05-05 14:01 | 49.15527 | 19.28312 | 36871 ft | 440 kts | 168° |
| 2026-05-05 14:01 | 49.09584 | 19.30738 | 36877 ft | 440 kts | 168° |
| 2026-05-05 14:02 | 49.03695 | 19.33137 | 36883 ft | 440 kts | 168° |
| 2026-05-05 14:02 | 48.97739 | 19.35552 | 36887 ft | 440 kts | 168° |
| 2026-05-05 14:03 | 48.91850 | 19.37930 | 36894 ft | 440 kts | 168° |
| 2026-05-05 14:03 | 48.85916 | 19.40324 | 36885 ft | 440 kts | 168° |
| 2026-05-05 14:04 | 48.79993 | 19.42713 | 36890 ft | 440 kts | 168° |
| 2026-05-05 14:04 | 48.74067 | 19.45091 | 36904 ft | 441 kts | 168° |
| 2026-05-05 14:05 | 48.68163 | 19.47434 | 36903 ft | 440 kts | 168° |
| 2026-05-05 14:05 | 48.62233 | 19.49811 | 36903 ft | 440 kts | 168° |
| 2026-05-05 14:06 | 48.56307 | 19.52176 | 36901 ft | 440 kts | 168° |
| 2026-05-05 14:06 | 48.50417 | 19.54517 | 36901 ft | 441 kts | 168° |
| 2026-05-05 14:07 | 48.44498 | 19.56866 | 36902 ft | 440 kts | 168° |
| 2026-05-05 14:07 | 48.38555 | 19.59222 | 36902 ft | 441 kts | 168° |
| 2026-05-05 14:08 | 48.32623 | 19.61566 | 36899 ft | 441 kts | 168° |
| 2026-05-05 14:08 | 48.26691 | 19.63901 | 36900 ft | 441 kts | 168° |
| 2026-05-05 14:09 | 48.20739 | 19.66233 | 36898 ft | 441 kts | 167° |
| 2026-05-05 14:09 | 48.14803 | 19.68557 | 36903 ft | 441 kts | 167° |
| 2026-05-05 14:10 | 48.08850 | 19.70888 | 36903 ft | 441 kts | 168° |
| 2026-05-05 14:10 | 48.02933 | 19.73199 | 36908 ft | 442 kts | 168° |
| 2026-05-05 14:11 | 47.97029 | 19.75497 | 36908 ft | 442 kts | 168° |
| 2026-05-05 14:11 | 47.91072 | 19.77809 | 36907 ft | 442 kts | 167° |
| 2026-05-05 14:12 | 47.85113 | 19.80104 | 36907 ft | 442 kts | 167° |
| 2026-05-05 14:12 | 47.79162 | 19.82398 | 36908 ft | 442 kts | 168° |
| 2026-05-05 14:13 | 47.73202 | 19.84694 | 36910 ft | 442 kts | 168° |
| 2026-05-05 14:13 | 47.67238 | 19.86986 | 36910 ft | 442 kts | 168° |
| 2026-05-05 14:14 | 47.62283 | 19.88888 | 36915 ft | 442 kts | 167° |
| 2026-05-05 14:14 | 47.56319 | 19.91171 | 36918 ft | 442 kts | 167° |
| 2026-05-05 14:15 | 47.50354 | 19.93454 | 36919 ft | 443 kts | 167° |
| 2026-05-05 14:15 | 47.44405 | 19.95723 | 36915 ft | 443 kts | 167° |
| 2026-05-05 14:16 | 47.38428 | 19.97997 | 36918 ft | 443 kts | 167° |
| 2026-05-05 14:16 | 47.32456 | 20.00273 | 36923 ft | 443 kts | 167° |
| 2026-05-05 14:17 | 47.26477 | 20.02529 | 36929 ft | 444 kts | 167° |
| 2026-05-05 14:17 | 47.20489 | 20.04780 | 36935 ft | 444 kts | 167° |
| 2026-05-05 14:18 | 47.14551 | 20.07014 | 36937 ft | 444 kts | 167° |
| 2026-05-05 14:18 | 47.08522 | 20.09286 | 36938 ft | 444 kts | 167° |
| 2026-05-05 14:19 | 47.02569 | 20.11524 | 36939 ft | 444 kts | 167° |
| 2026-05-05 14:19 | 46.96573 | 20.13756 | 36932 ft | 445 kts | 167° |
| 2026-05-05 14:20 | 46.90567 | 20.15994 | 36932 ft | 445 kts | 167° |
| 2026-05-05 14:20 | 46.84563 | 20.18225 | 36929 ft | 445 kts | 167° |
| 2026-05-05 14:21 | 46.78652 | 20.20424 | 36926 ft | 445 kts | 167° |
| 2026-05-05 14:21 | 46.72643 | 20.22659 | 36922 ft | 445 kts | 167° |
| 2026-05-05 14:22 | 46.66622 | 20.24883 | 36927 ft | 446 kts | 167° |
| 2026-05-05 14:22 | 46.60616 | 20.27091 | 36926 ft | 446 kts | 167° |
| 2026-05-05 14:23 | 46.54642 | 20.29296 | 36928 ft | 446 kts | 167° |
| 2026-05-05 14:23 | 46.48623 | 20.31515 | 36929 ft | 446 kts | 167° |
| 2026-05-05 14:24 | 46.42563 | 20.33727 | 36932 ft | 446 kts | 167° |
| 2026-05-05 14:24 | 46.36575 | 20.35908 | 36931 ft | 447 kts | 167° |
| 2026-05-05 14:25 | 46.30542 | 20.38107 | 36934 ft | 447 kts | 167° |
| 2026-05-05 14:25 | 46.24507 | 20.40306 | 36935 ft | 447 kts | 167° |
| 2026-05-05 14:26 | 46.18473 | 20.42498 | 36934 ft | 447 kts | 167° |
| 2026-05-05 14:26 | 46.12438 | 20.44685 | 36933 ft | 447 kts | 167° |
| 2026-05-05 14:27 | 46.06414 | 20.46863 | 36935 ft | 448 kts | 167° |
| 2026-05-05 14:27 | 46.00424 | 20.49362 | 36930 ft | 449 kts | 162° |
| 2026-05-05 14:28 | 45.94526 | 20.52323 | 36931 ft | 449 kts | 161° |
| 2026-05-05 14:28 | 45.88639 | 20.55376 | 36935 ft | 450 kts | 161° |
| 2026-05-05 14:29 | 45.82742 | 20.58372 | 36934 ft | 450 kts | 162° |
| 2026-05-05 14:29 | 45.76847 | 20.61321 | 36940 ft | 450 kts | 162° |
| 2026-05-05 14:30 | 45.70925 | 20.64265 | 36939 ft | 450 kts | 162° |
| 2026-05-05 14:30 | 45.65006 | 20.67217 | 36937 ft | 451 kts | 162° |
| 2026-05-05 14:31 | 45.59080 | 20.70182 | 36940 ft | 451 kts | 162° |
| 2026-05-05 14:31 | 45.53148 | 20.73131 | 36938 ft | 451 kts | 162° |
| 2026-05-05 14:32 | 45.47214 | 20.76075 | 36943 ft | 452 kts | 162° |
| 2026-05-05 14:32 | 45.41275 | 20.79026 | 36943 ft | 452 kts | 162° |
| 2026-05-05 14:33 | 45.35328 | 20.81969 | 36947 ft | 452 kts | 162° |
| 2026-05-05 14:33 | 45.29385 | 20.84884 | 36951 ft | 453 kts | 162° |
| 2026-05-05 14:34 | 45.23451 | 20.87789 | 36954 ft | 453 kts | 162° |
| 2026-05-05 14:34 | 45.17471 | 20.90730 | 36954 ft | 454 kts | 162° |
| 2026-05-05 14:35 | 45.11505 | 20.93666 | 36954 ft | 454 kts | 162° |
| 2026-05-05 14:35 | 45.05536 | 20.96582 | 36954 ft | 454 kts | 162° |
| 2026-05-05 14:36 | 44.99582 | 20.99476 | 36957 ft | 455 kts | 162° |
| 2026-05-05 14:36 | 44.93561 | 21.02411 | 36966 ft | 455 kts | 162° |
| 2026-05-05 14:37 | 44.87562 | 21.05330 | 36951 ft | 455 kts | 162° |
| 2026-05-05 14:37 | 44.81609 | 21.08217 | 36951 ft | 456 kts | 162° |
| 2026-05-05 14:38 | 44.75598 | 21.11109 | 36957 ft | 456 kts | 162° |
| 2026-05-05 14:38 | 44.69595 | 21.14007 | 36954 ft | 457 kts | 162° |
| 2026-05-05 14:39 | 44.63575 | 21.16908 | 36953 ft | 457 kts | 162° |
| 2026-05-05 14:39 | 44.57556 | 21.19795 | 36957 ft | 458 kts | 162° |
| 2026-05-05 14:40 | 44.51527 | 21.22693 | 36958 ft | 458 kts | 162° |
| 2026-05-05 14:40 | 44.45489 | 21.25579 | 36955 ft | 458 kts | 162° |
| 2026-05-05 14:41 | 44.39446 | 21.28453 | 36964 ft | 459 kts | 162° |
| 2026-05-05 14:41 | 44.33393 | 21.31329 | 36967 ft | 459 kts | 162° |
| 2026-05-05 14:42 | 44.27342 | 21.34204 | 36965 ft | 459 kts | 162° |
| 2026-05-05 14:42 | 44.21283 | 21.37075 | 36961 ft | 460 kts | 162° |
| 2026-05-05 14:43 | 44.15219 | 21.39933 | 36960 ft | 460 kts | 163° |
| 2026-05-05 14:43 | 44.09150 | 21.42791 | 36962 ft | 461 kts | 162° |
| 2026-05-05 14:44 | 44.03116 | 21.45636 | 36969 ft | 461 kts | 162° |
| 2026-05-05 14:44 | 43.97039 | 21.48505 | 36958 ft | 461 kts | 163° |
| 2026-05-05 14:45 | 43.90956 | 21.51352 | 36970 ft | 462 kts | 163° |
| 2026-05-05 14:45 | 43.84864 | 21.54196 | 36967 ft | 462 kts | 163° |
| 2026-05-05 14:46 | 43.78760 | 21.57048 | 36969 ft | 463 kts | 163° |
| 2026-05-05 14:46 | 43.72667 | 21.59887 | 36966 ft | 463 kts | 163° |
| 2026-05-05 14:47 | 43.66538 | 21.62729 | 36964 ft | 463 kts | 163° |
| 2026-05-05 14:47 | 43.60471 | 21.65543 | 36961 ft | 464 kts | 163° |
| 2026-05-05 14:48 | 43.54344 | 21.68387 | 36972 ft | 464 kts | 163° |
| 2026-05-05 14:48 | 43.48202 | 21.71224 | 36982 ft | 465 kts | 163° |
| 2026-05-05 14:49 | 43.42059 | 21.74050 | 36992 ft | 465 kts | 163° |
| 2026-05-05 14:49 | 43.35940 | 21.76863 | 36988 ft | 466 kts | 163° |
| 2026-05-05 14:50 | 43.29752 | 21.79701 | 36992 ft | 466 kts | 163° |
| 2026-05-05 14:50 | 43.23635 | 21.82498 | 36991 ft | 467 kts | 163° |
| 2026-05-05 14:51 | 43.17471 | 21.85306 | 36988 ft | 467 kts | 163° |
| 2026-05-05 14:51 | 43.11281 | 21.88075 | 36967 ft | 469 kts | 164° |
| 2026-05-05 14:52 | 43.05029 | 21.90786 | 36956 ft | 472 kts | 164° |
| 2026-05-05 14:52 | 42.98748 | 21.93490 | 36958 ft | 474 kts | 164° |
| 2026-05-05 14:53 | 42.92489 | 21.96205 | 36966 ft | 476 kts | 164° |
| 2026-05-05 14:53 | 42.86175 | 21.98959 | 36973 ft | 477 kts | 164° |
| 2026-05-05 14:54 | 42.79852 | 22.01694 | 36979 ft | 477 kts | 164° |
| 2026-05-05 14:54 | 42.73513 | 22.04431 | 36986 ft | 478 kts | 164° |
| 2026-05-05 14:55 | 42.67168 | 22.07163 | 36995 ft | 478 kts | 164° |
| 2026-05-05 14:55 | 42.60823 | 22.09901 | 37003 ft | 479 kts | 164° |
| 2026-05-05 14:56 | 42.54498 | 22.12615 | 37005 ft | 479 kts | 165° |
| 2026-05-05 14:56 | 42.48145 | 22.15324 | 37020 ft | 479 kts | 165° |
| 2026-05-05 14:57 | 42.41775 | 22.18048 | 37014 ft | 480 kts | 165° |
| 2026-05-05 14:57 | 42.35395 | 22.20774 | 37012 ft | 480 kts | 165° |
| 2026-05-05 14:58 | 42.29058 | 22.23469 | 37014 ft | 481 kts | 165° |
| 2026-05-05 14:58 | 42.22669 | 22.26180 | 37012 ft | 481 kts | 165° |
| 2026-05-05 14:59 | 42.16273 | 22.28885 | 37010 ft | 482 kts | 165° |
| 2026-05-05 14:59 | 42.09858 | 22.31594 | 37008 ft | 483 kts | 165° |
| 2026-05-05 15:00 | 42.04520 | 22.33845 | 37011 ft | 483 kts | 165° |
| 2026-05-05 15:00 | 41.98101 | 22.36547 | 37007 ft | 484 kts | 165° |
| 2026-05-05 15:01 | 41.91675 | 22.39256 | 37006 ft | 484 kts | 165° |
| 2026-05-05 15:01 | 41.85281 | 22.41939 | 37007 ft | 485 kts | 165° |
| 2026-05-05 15:02 | 41.78820 | 22.44636 | 37003 ft | 485 kts | 165° |
| 2026-05-05 15:02 | 41.72365 | 22.47326 | 36994 ft | 486 kts | 165° |
| 2026-05-05 15:03 | 41.65905 | 22.50015 | 36989 ft | 487 kts | 165° |
| 2026-05-05 15:03 | 41.59424 | 22.52704 | 36985 ft | 487 kts | 165° |
| 2026-05-05 15:04 | 41.52985 | 22.55378 | 36984 ft | 488 kts | 165° |
| 2026-05-05 15:04 | 41.46498 | 22.58076 | 36987 ft | 488 kts | 165° |
| 2026-05-05 15:05 | 41.36786 | 22.62105 | 36981 ft | 489 kts | 165° |
| 2026-05-05 15:06 | 41.30243 | 22.64797 | 36981 ft | 490 kts | 165° |
| 2026-05-05 15:06 | 41.23733 | 22.67475 | 36975 ft | 490 kts | 165° |
| 2026-05-05 15:07 | 41.17206 | 22.70149 | 36967 ft | 490 kts | 165° |
| 2026-05-05 15:07 | 41.10679 | 22.72803 | 36965 ft | 491 kts | 165° |
| 2026-05-05 15:08 | 41.04178 | 22.75447 | 36965 ft | 492 kts | 165° |
| 2026-05-05 15:08 | 40.97628 | 22.78114 | 36966 ft | 492 kts | 165° |
| 2026-05-05 15:09 | 40.91074 | 22.80784 | 36963 ft | 493 kts | 165° |
| 2026-05-05 15:09 | 40.84511 | 22.83454 | 36950 ft | 493 kts | 165° |
| 2026-05-05 15:09 | 40.81238 | 22.84785 | 36554 ft | 490 kts | 165° |
| 2026-05-05 15:10 | 40.77988 | 22.86102 | 36017 ft | 488 kts | 165° |
| 2026-05-05 15:10 | 40.74746 | 22.87410 | 35421 ft | 487 kts | 165° |
| 2026-05-05 15:10 | 40.71496 | 22.88722 | 34793 ft | 488 kts | 165° |
| 2026-05-05 15:10 | 40.68240 | 22.90037 | 34140 ft | 489 kts | 165° |
| 2026-05-05 15:11 | 40.65013 | 22.91338 | 33419 ft | 491 kts | 165° |
| 2026-05-05 15:11 | 40.61737 | 22.92654 | 32637 ft | 493 kts | 165° |
| 2026-05-05 15:11 | 40.58450 | 22.93973 | 31979 ft | 492 kts | 165° |
| 2026-05-05 15:11 | 40.55183 | 22.95285 | 31400 ft | 489 kts | 165° |
| 2026-05-05 15:12 | 40.51935 | 22.96590 | 30858 ft | 487 kts | 166° |
| 2026-05-05 15:12 | 40.48702 | 22.97887 | 30318 ft | 484 kts | 166° |
| 2026-05-05 15:12 | 40.45462 | 22.99191 | 29239 ft | 492 kts | 165° |
| 2026-05-05 15:12 | 40.42198 | 23.00631 | 28325 ft | 496 kts | 162° |
| 2026-05-05 15:13 | 40.39004 | 23.02188 | 27668 ft | 493 kts | 160° |
| 2026-05-05 15:13 | 40.35827 | 23.03833 | 27162 ft | 487 kts | 159° |
| 2026-05-05 15:13 | 40.32729 | 23.05469 | 26958 ft | 473 kts | 159° |
| 2026-05-05 15:13 | 40.29712 | 23.07048 | 26950 ft | 461 kts | 160° |
| 2026-05-05 15:14 | 40.26720 | 23.08582 | 26041 ft | 467 kts | 160° |
| 2026-05-05 15:14 | 40.23671 | 23.10108 | 25269 ft | 469 kts | 160° |
| 2026-05-05 15:14 | 40.20625 | 23.11608 | 24692 ft | 466 kts | 160° |
| 2026-05-05 15:14 | 40.17599 | 23.13089 | 24166 ft | 462 kts | 160° |
| 2026-05-05 15:15 | 40.14599 | 23.14557 | 23650 ft | 458 kts | 160° |
| 2026-05-05 15:15 | 40.11637 | 23.16011 | 23069 ft | 453 kts | 159° |
| 2026-05-05 15:15 | 40.08696 | 23.17463 | 22466 ft | 448 kts | 159° |
| 2026-05-05 15:15 | 40.05796 | 23.18898 | 21906 ft | 443 kts | 159° |
| 2026-05-05 15:16 | 40.02926 | 23.20316 | 21347 ft | 438 kts | 159° |
| 2026-05-05 15:16 | 40.00086 | 23.21717 | 20802 ft | 433 kts | 159° |
| 2026-05-05 15:16 | 39.97314 | 23.23082 | 20270 ft | 429 kts | 159° |
| 2026-05-05 15:16 | 39.94502 | 23.24465 | 19738 ft | 424 kts | 159° |
| 2026-05-05 15:17 | 39.91790 | 23.25799 | 19236 ft | 420 kts | 159° |
| 2026-05-05 15:17 | 39.89068 | 23.27136 | 18726 ft | 416 kts | 159° |
| 2026-05-05 15:17 | 39.86373 | 23.28455 | 18230 ft | 411 kts | 159° |
| 2026-05-05 15:17 | 39.83702 | 23.29758 | 17674 ft | 407 kts | 159° |
| 2026-05-05 15:18 | 39.81061 | 23.31043 | 17134 ft | 403 kts | 159° |
| 2026-05-05 15:18 | 39.78443 | 23.32315 | 16610 ft | 399 kts | 159° |
| 2026-05-05 15:18 | 39.75855 | 23.33577 | 16107 ft | 396 kts | 159° |
| 2026-05-05 15:18 | 39.73295 | 23.34829 | 15655 ft | 391 kts | 159° |
| 2026-05-05 15:19 | 39.70790 | 23.36056 | 15122 ft | 389 kts | 159° |
| 2026-05-05 15:19 | 39.68273 | 23.37290 | 14639 ft | 386 kts | 159° |
| 2026-05-05 15:19 | 39.65777 | 23.38512 | 14206 ft | 381 kts | 159° |
| 2026-05-05 15:19 | 39.63304 | 23.39717 | 13764 ft | 377 kts | 159° |
| 2026-05-05 15:20 | 39.60853 | 23.40910 | 13254 ft | 374 kts | 159° |
| 2026-05-05 15:20 | 39.58422 | 23.42089 | 12731 ft | 371 kts | 159° |
| 2026-05-05 15:20 | 39.56016 | 23.43252 | 12294 ft | 366 kts | 159° |
| 2026-05-05 15:20 | 39.53639 | 23.44402 | 11834 ft | 362 kts | 159° |
| 2026-05-05 15:21 | 39.51295 | 23.45540 | 11386 ft | 358 kts | 159° |
| 2026-05-05 15:21 | 39.48965 | 23.46676 | 10920 ft | 355 kts | 158° |
| 2026-05-05 15:21 | 39.46661 | 23.47797 | 10471 ft | 353 kts | 158° |
| 2026-05-05 15:21 | 39.44422 | 23.48880 | 10278 ft | 341 kts | 159° |
| 2026-05-05 15:22 | 39.42240 | 23.49931 | 10167 ft | 328 kts | 159° |
| 2026-05-05 15:22 | 39.40132 | 23.50946 | 10055 ft | 316 kts | 158° |
| 2026-05-05 15:22 | 39.38104 | 23.51925 | 9791 ft | 306 kts | 158° |
| 2026-05-05 15:22 | 39.36119 | 23.52885 | 9300 ft | 302 kts | 158° |
| 2026-05-05 15:23 | 39.34163 | 23.53833 | 8920 ft | 298 kts | 158° |
| 2026-05-05 15:23 | 39.32228 | 23.54770 | 8542 ft | 296 kts | 158° |
| 2026-05-05 15:23 | 39.30301 | 23.55701 | 8161 ft | 294 kts | 159° |
| 2026-05-05 15:23 | 39.28425 | 23.56604 | 7803 ft | 291 kts | 159° |
| 2026-05-05 15:24 | 39.26532 | 23.57514 | 7430 ft | 289 kts | 159° |
| 2026-05-05 15:24 | 39.24652 | 23.58416 | 7063 ft | 287 kts | 159° |
| 2026-05-05 15:24 | 39.22785 | 23.59314 | 6692 ft | 286 kts | 159° |
| 2026-05-05 15:24 | 39.20928 | 23.60207 | 6343 ft | 283 kts | 159° |
| 2026-05-05 15:25 | 39.19047 | 23.60809 | 6137 ft | 275 kts | 175° |
| 2026-05-05 15:25 | 39.17197 | 23.60693 | 5888 ft | 262 kts | 193° |
| 2026-05-05 15:25 | 39.15532 | 23.59955 | 5494 ft | 248 kts | 209° |
| 2026-05-05 15:25 | 39.14010 | 23.58942 | 4944 ft | 244 kts | 209° |
| 2026-05-05 15:26 | 39.12505 | 23.57951 | 4407 ft | 240 kts | 209° |
| 2026-05-05 15:26 | 39.11087 | 23.57025 | 4240 ft | 217 kts | 209° |
| 2026-05-05 15:26 | 39.09792 | 23.56184 | 4103 ft | 201 kts | 209° |
| 2026-05-05 15:26 | 39.08569 | 23.55389 | 3800 ft | 195 kts | 208° |
| 2026-05-05 15:27 | 39.07386 | 23.54542 | 3432 ft | 192 kts | 221° |
| 2026-05-05 15:27 | 39.06598 | 23.53205 | 3205 ft | 186 kts | 250° |
| 2026-05-05 15:27 | 39.06447 | 23.51620 | 2960 ft | 176 kts | 280° |
| 2026-05-05 15:27 | 39.06903 | 23.50208 | 2721 ft | 170 kts | 308° |
| 2026-05-05 15:28 | 39.07771 | 23.49226 | 2508 ft | 164 kts | 324° |
| 2026-05-05 15:28 | 39.08729 | 23.48440 | 2263 ft | 162 kts | 336° |
| 2026-05-05 15:28 | 39.09769 | 23.48135 | 2024 ft | 149 kts | 356° |
| 2026-05-05 15:28 | 39.10772 | 23.48292 | 1751 ft | 144 kts | 13° |
| 2026-05-05 15:29 | 39.11728 | 23.48569 | 1457 ft | 142 kts | 12° |
| 2026-05-05 15:29 | 39.12705 | 23.48761 | 1074 ft | 142 kts | 1° |
| 2026-05-05 15:29 | 39.13694 | 23.48790 | 742 ft | 143 kts | 3° |
| 2026-05-05 15:29 | 39.14670 | 23.48987 | 484 ft | 142 kts | 18° |
| 2026-05-05 15:30 | 39.15605 | 23.49421 | 319 ft | 143 kts | 21° |
| 2026-05-05 15:30 | 39.16551 | 23.49854 | 140 ft | 144 kts | 20° |
| 2026-05-05 15:30 | 39.17489 | 23.50269 | 39 ft | 134 kts | 18° |
| 2026-05-05 15:30 | 39.18106 | 23.50542 | 50 ft | 53 kts | 19° |
| 2026-05-05 15:31 | 39.18331 | 23.50643 | 54 ft | 17 kts | 19° |
| 2026-05-05 15:31 | 39.18398 | 23.50657 | 54 ft | 8 kts | 348° |
| 2026-05-05 15:31 | 39.18407 | 23.50670 | 55 ft | 1 kts | 110° |
| 2026-05-05 15:31 | 39.18400 | 23.50670 | 56 ft | 1 kts | 171° |
| 2026-05-05 15:32 | 39.18353 | 23.50653 | 57 ft | 13 kts | 196° |
| 2026-05-05 15:32 | 39.18242 | 23.50604 | 50 ft | 19 kts | 199° |
| 2026-05-05 15:32 | 39.18102 | 23.50541 | 50 ft | 23 kts | 199° |
| 2026-05-05 15:32 | 39.17979 | 23.50487 | 46 ft | 10 kts | 198° |
| 2026-05-05 15:33 | 39.17931 | 23.50413 | 42 ft | 10 kts | 250° |
| 2026-05-05 15:33 | 39.17931 | 23.50325 | 39 ft | 12 kts | 287° |
| 2026-05-05 15:33 | 39.17947 | 23.50263 | 39 ft | 2 kts | 289° |
| 2026-05-05 15:33 | 39.17948 | 23.50260 | 39 ft | 0 kts | 289° |